37M weather

Hornersville Memorial Airport
Hornersville, Missouri, United States

Public forecast

Using degrees Fahrenheit for public forecast. Weather courtesy of forecast.io.

Closest aviation weather report (METAR) to Hornersville Memorial Airport

Report is more than 6 hours old.

Closest report is Arkansas International Airport, 11.0 nm (20.4 km) ESE. Retrieved 2020/07/09 14:50 UTC (21 hours ago):

KBYH 091450Z 21003KT 10SM SCT020 29/23 A2992

Closest aviation forecast (TAF) to Hornersville Memorial Airport

Closest forecast is Jonesboro Municipal Airport, 27.2 nm (50.4 km) WSW. Retrieved 2020/07/10 12:33 UTC (0 seconds ago):

TAF KJBR 101129Z 1012/1112 30005KT P6SM FEW250 FM101600 34006KT P6SM SKC FM102200 31006KT P6SM FEW060 FEW250 FM110000 00000KT P6SM SKC AMD NOT SKED